CheckWX is a tool to help pilots better visualize weather data.  It is not intended as a substitute for an official pre-flight weather briefing.

06:36:16 UTC

KAWG METAR
Washington Municipal Airport
Washington, Iowa, USA
Current

21 mins ago

KAWG 240615Z AUTO 04009KT 1SM -SN OVC003 00/00 A2987 RMK AO2
Observed
Jan-24 @ 06:15 UTC
Wind
  • 040° at 9 KTS
Visibility
1 SM
Flight Rules
LIFR
Conditions
Light Snow
Cloud Levels
  • Overcast at 300' AGL
Temperature
C / 32°F
Dewpoint
C / 32°F
Humidity
100%
Altimeter
29.87" Hg
Pressure
1011.52 hPa
Previous

41 mins ago

KAWG 240555Z AUTO 04010KT 1SM -SN OVC003 00/00 A2988 RMK AO2 P0001
Observed
Jan-24 @ 05:55 UTC
Wind
  • 040° at 10 KTS
Visibility
1 SM
Flight Rules
LIFR
Conditions
Light Snow
Cloud Levels
  • Overcast at 300' AGL
Temperature
C / 32°F
Dewpoint
C / 32°F
Humidity
100%
Altimeter
29.88" Hg
Pressure
1011.82 hPa
Current Rain
0.01"
Previous

1 hour ago

KAWG 240535Z AUTO 04009KT 3/4SM -SN OVC003 00/00 A2988 RMK AO2
Observed
Jan-24 @ 05:35 UTC
Wind
  • 040° at 9 KTS
Visibility
3/4 SM
Flight Rules
LIFR
Conditions
Light Snow
Cloud Levels
  • Overcast at 300' AGL
Temperature
C / 32°F
Dewpoint
C / 32°F
Humidity
100%
Altimeter
29.88" Hg
Pressure
1011.82 hPa